createdAt,value
2023-02-05T03:25:47.418Z,15.10
2023-02-05T03:28:18.967Z,10.87
2023-02-05T03:31:04.913Z,12.82
2023-02-05T03:33:46.140Z,12.88
2023-02-05T03:36:19.459Z,14.25
2023-02-05T03:38:54.585Z,11.65
2023-02-05T03:41:54.098Z,12.78
2023-02-05T03:44:48.808Z,13.05
2023-02-05T03:47:28.312Z,10.55
2023-02-05T03:50:15.888Z,13.10
2023-02-05T03:52:49.149Z,12.70
2023-02-05T03:55:30.456Z,14.70
2023-02-05T03:58:02.981Z,12.73
2023-02-05T04:00:34.628Z,9.88
2023-02-05T04:05:35.943Z,9.65
2023-02-05T04:08:06.396Z,13.60
2023-02-05T04:10:37.531Z,10.00
2023-02-05T04:13:08.269Z,10.08
2023-02-05T04:15:38.538Z,12.05
2023-02-05T04:18:10.026Z,11.78
2023-02-05T04:20:39.709Z,10.90
2023-02-05T04:23:09.926Z,10.43
2023-02-05T04:25:41.772Z,10.43
2023-02-05T04:28:13.286Z,10.25
2023-02-05T04:30:43.428Z,9.03
2023-02-05T04:33:13.221Z,10.43
2023-02-05T04:35:43.592Z,10.60
2023-02-05T04:38:13.926Z,12.03
2023-02-05T04:40:43.428Z,10.80
2023-02-05T04:43:13.063Z,10.32
2023-02-05T04:45:42.539Z,11.95
2023-02-05T04:48:12.621Z,9.98
2023-02-05T04:50:42.728Z,8.95
2023-02-05T04:53:12.138Z,12.53
2023-02-05T04:55:41.627Z,12.28
2023-02-05T05:01:47.089Z,9.55
2023-02-05T05:04:16.542Z,10.78
2023-02-05T05:06:45.945Z,9.93
2023-02-05T05:09:15.510Z,13.58
2023-02-05T05:11:44.925Z,10.78
2023-02-05T05:14:14.364Z,11.57
2023-02-05T05:16:44.092Z,8.18
2023-02-05T05:19:13.901Z,10.90
2023-02-05T05:21:43.450Z,11.18
2023-02-05T05:24:13.028Z,10.13
2023-02-05T05:26:44.162Z,11.12
2023-02-05T05:29:14.503Z,11.10
2023-02-05T05:31:44.314Z,10.48
2023-02-05T05:34:13.803Z,12.65
2023-02-05T05:36:43.786Z,8.95
2023-02-05T05:39:31.790Z,11.43
2023-02-05T05:42:19.454Z,10.72
2023-02-05T05:44:50.574Z,8.20
2023-02-05T05:47:20.671Z,11.93
2023-02-05T05:49:50.480Z,11.12
2023-02-05T05:52:19.997Z,11.28
2023-02-05T05:54:49.476Z,8.63
2023-02-05T05:57:19.032Z,10.60
2023-02-05T05:59:48.450Z,10.82
2023-02-05T06:02:18.693Z,9.44
2023-02-05T06:04:48.548Z,9.53
2023-02-05T06:07:18.034Z,11.75
2023-02-05T06:09:47.445Z,11.22
2023-02-05T06:12:17.120Z,11.33
2023-02-05T06:14:46.528Z,11.80
2023-02-05T06:17:15.959Z,9.10
2023-02-05T06:19:45.707Z,12.15
2023-02-05T06:22:15.150Z,11.63
2023-02-05T06:24:44.583Z,10.60
2023-02-05T06:27:14.072Z,11.30
2023-02-05T06:29:43.612Z,12.00
2023-02-05T06:32:13.119Z,12.35
2023-02-05T06:34:42.597Z,13.13
2023-02-05T06:37:12.093Z,13.43
2023-02-05T06:39:41.688Z,13.60
2023-02-05T06:42:11.524Z,16.80
2023-02-05T06:44:40.933Z,12.45
2023-02-05T06:47:10.435Z,11.50
2023-02-05T06:49:40.001Z,11.83
2023-02-05T06:52:09.432Z,12.50
2023-02-05T06:54:38.923Z,11.33
2023-02-05T06:57:08.762Z,13.00
2023-02-05T06:59:38.584Z,15.13
2023-02-05T07:02:09.092Z,11.70
2023-02-05T07:04:38.643Z,13.48
2023-02-05T07:07:08.141Z,11.00
2023-02-05T07:09:37.561Z,12.07
2023-02-05T07:12:07.634Z,9.35
2023-02-05T07:14:41.871Z,8.83
2023-02-05T07:17:13.038Z,12.20
2023-02-05T07:19:42.465Z,12.15
2023-02-05T07:22:16.792Z,10.10
2023-02-05T07:24:46.213Z,9.00
2023-02-05T07:27:15.634Z,10.93
2023-02-05T07:29:45.153Z,13.48
2023-02-05T07:32:14.749Z,10.70
2023-02-05T07:34:44.310Z,11.10
2023-02-05T07:37:14.716Z,13.62
2023-02-05T07:39:44.132Z,9.98
2023-02-05T07:42:14.139Z,9.63
2023-02-05T07:44:45.517Z,9.65
2023-02-05T07:47:14.925Z,9.53
2023-02-05T07:49:44.396Z,9.05
2023-02-05T07:52:14.002Z,9.28
2023-02-05T07:54:43.491Z,9.38
2023-02-05T07:57:12.932Z,9.33
2023-02-05T07:59:43.271Z,10.38
2023-02-05T08:02:13.564Z,11.15
2023-02-05T08:04:43.402Z,11.25
2023-02-05T08:07:14.382Z,11.95
2023-02-05T08:12:12.507Z,9.97
2023-02-05T08:14:42.358Z,13.30
2023-02-05T08:17:12.162Z,9.83
2023-02-05T08:19:42.372Z,11.22
2023-02-05T08:22:11.797Z,14.20
2023-02-05T08:24:41.532Z,12.43
2023-02-05T08:27:10.963Z,13.33
2023-02-05T08:29:40.390Z,13.93
2023-02-05T08:32:10.170Z,11.93
2023-02-05T08:34:39.898Z,9.35
2023-02-05T08:37:09.326Z,11.28
2023-02-05T08:39:39.124Z,13.25
2023-02-05T08:42:08.735Z,12.68
2023-02-05T08:44:38.150Z,9.40
2023-02-05T08:47:07.862Z,10.82
2023-02-05T08:49:38.285Z,9.83
2023-02-05T08:52:08.449Z,11.95
2023-02-05T08:54:37.856Z,13.22
2023-02-05T08:57:07.307Z,10.80
2023-02-05T08:59:36.929Z,10.93
2023-02-05T09:02:06.839Z,12.98
2023-02-05T09:04:36.370Z,11.63
2023-02-05T09:07:06.345Z,10.10
2023-02-05T09:09:36.935Z,16.48
2023-02-05T09:12:07.613Z,13.70
2023-02-05T09:14:37.484Z,11.48
2023-02-05T09:17:08.750Z,12.45
2023-02-05T09:19:40.639Z,13.75
2023-02-05T09:22:10.689Z,12.83
2023-02-05T09:24:40.467Z,10.88
2023-02-05T09:27:11.528Z,11.53
2023-02-05T09:29:41.928Z,13.65
2023-02-05T09:32:11.422Z,13.85
2023-02-05T09:34:40.939Z,11.03
2023-02-05T09:37:11.126Z,10.60
2023-02-05T09:42:24.244Z,9.30
2023-02-05T09:47:30.260Z,14.30
2023-02-05T09:50:09.780Z,10.93
2023-02-05T09:52:41.657Z,10.93
2023-02-05T09:55:17.062Z,12.40
2023-02-05T09:57:47.039Z,14.47
2023-02-05T10:05:26.310Z,13.93
2023-02-05T10:10:38.272Z,11.48
2023-02-05T10:13:33.622Z,10.05
2023-02-05T10:16:31.100Z,16.05
2023-02-05T10:19:35.702Z,14.50
2023-02-05T10:22:16.931Z,15.35
2023-02-05T10:24:58.656Z,12.20
2023-02-05T10:27:36.603Z,16.93
2023-02-05T10:30:15.106Z,16.05
2023-02-05T10:33:03.559Z,12.68
2023-02-05T10:35:43.420Z,11.90
2023-02-05T10:38:28.372Z,12.50
2023-02-05T10:41:07.503Z,13.58
2023-02-05T10:43:55.539Z,13.00
2023-02-05T10:46:28.112Z,14.00
2023-02-05T10:49:03.861Z,11.38
2023-02-05T10:51:45.313Z,13.47
2023-02-05T10:56:49.182Z,14.25
2023-02-05T10:59:31.084Z,13.03
2023-02-05T11:02:03.639Z,12.50
2023-02-05T11:04:39.812Z,10.95
2023-02-05T11:07:18.839Z,12.93
2023-02-05T11:09:48.268Z,15.80
2023-02-05T11:12:21.129Z,15.20
2023-02-05T11:14:53.621Z,10.30
2023-02-05T11:17:26.487Z,11.18
2023-02-05T11:19:58.044Z,10.08
2023-02-05T11:22:30.580Z,11.88
2023-02-05T11:27:59.865Z,10.58
2023-02-05T11:30:51.829Z,11.10
2023-02-05T11:38:45.466Z,12.88
2023-02-05T11:41:18.249Z,10.72
2023-02-05T11:43:52.458Z,8.68
2023-02-05T11:46:24.538Z,9.48
2023-02-05T11:49:05.504Z,10.43
2023-02-05T11:51:44.757Z,10.90
2023-02-05T11:57:21.326Z,10.23
2023-02-05T12:00:05.450Z,8.90
2023-02-05T12:02:37.421Z,8.75
2023-02-05T12:05:15.891Z,14.07
2023-02-05T12:08:07.578Z,12.53
2023-02-05T12:10:39.908Z,8.25
2023-02-05T12:13:24.333Z,10.90
2023-02-05T12:21:21.525Z,10.60
2023-02-05T12:24:06.425Z,9.05
2023-02-05T12:29:39.713Z,11.45
2023-02-05T12:37:36.613Z,12.28
2023-02-05T12:40:26.627Z,11.80
2023-02-05T12:45:29.539Z,15.43
2023-02-05T12:48:21.766Z,12.05
2023-02-05T12:51:00.276Z,15.15
2023-02-05T12:53:32.780Z,11.60
2023-02-05T12:56:20.793Z,10.48
2023-02-05T13:04:01.149Z,12.00
2023-02-05T13:06:35.999Z,10.03
2023-02-05T13:09:11.024Z,11.63
2023-02-05T13:12:06.568Z,9.78
2023-02-05T13:14:42.050Z,12.00
2023-02-05T13:17:26.431Z,9.68
2023-02-05T13:20:07.998Z,9.63
2023-02-05T13:23:01.547Z,11.93
2023-02-05T13:26:01.277Z,11.48
2023-02-05T13:28:42.941Z,13.62
2023-02-05T13:31:25.016Z,10.35
2023-02-05T13:33:57.205Z,9.97
2023-02-05T13:41:51.854Z,10.70
2023-02-05T13:44:27.263Z,7.90
2023-02-05T13:47:16.190Z,9.60
2023-02-05T13:50:00.681Z,9.05
2023-02-05T13:52:49.633Z,9.60
2023-02-05T13:55:44.693Z,10.15
2023-02-05T13:58:18.821Z,11.80
2023-02-05T14:01:06.587Z,13.50
2023-02-05T14:03:42.747Z,12.27
2023-02-05T14:06:24.343Z,14.18
2023-02-05T14:09:00.651Z,9.88
2023-02-05T14:11:32.585Z,8.30
2023-02-05T14:14:20.129Z,11.80
2023-02-05T14:16:51.021Z,11.22
2023-02-05T14:19:29.241Z,10.08
2023-02-05T14:22:04.660Z,11.50
2023-02-05T14:24:44.757Z,8.80
2023-02-05T14:27:35.655Z,11.30
2023-02-05T14:30:24.985Z,10.45
2023-02-05T14:33:00.595Z,11.65
2023-02-05T14:35:33.612Z,7.75
2023-02-05T14:38:07.277Z,8.78
2023-02-05T14:40:37.562Z,7.67
2023-02-05T14:43:19.309Z,10.68
2023-02-05T14:45:51.937Z,12.45
2023-02-05T14:48:27.324Z,12.60
2023-02-05T14:51:22.473Z,9.78
2023-02-05T14:54:01.085Z,10.13
2023-02-05T14:56:34.351Z,10.08
2023-02-05T14:59:07.487Z,9.48
2023-02-05T15:01:40.821Z,10.30
2023-02-05T15:04:19.431Z,11.28
2023-02-05T15:06:49.700Z,9.55
2023-02-05T15:09:24.218Z,8.60
2023-02-05T15:12:28.441Z,10.15
2023-02-05T15:14:59.646Z,11.00
2023-02-05T15:20:21.100Z,10.78
2023-02-05T15:22:56.168Z,9.95
2023-02-05T15:25:38.204Z,9.03
2023-02-05T15:28:23.101Z,9.87
2023-02-05T15:31:12.126Z,8.65
2023-02-05T15:33:44.603Z,9.20
2023-02-05T15:36:19.963Z,11.38
2023-02-05T15:39:02.701Z,12.15
2023-02-05T15:41:36.438Z,11.65
2023-02-05T15:44:06.270Z,11.03
2023-02-05T15:46:36.527Z,10.45
2023-02-05T15:49:07.129Z,9.83
2023-02-05T15:51:38.413Z,11.80
2023-02-05T15:54:09.245Z,9.58
2023-02-05T15:56:42.568Z,16.27
2023-02-05T15:59:15.333Z,10.25
2023-02-05T16:04:31.156Z,11.48
2023-02-05T16:14:30.400Z,16.12
2023-02-05T16:17:09.205Z,14.07
2023-02-05T16:19:48.338Z,12.18
2023-02-05T16:22:32.770Z,13.08
2023-02-05T16:25:05.269Z,14.33
2023-02-05T16:27:37.886Z,13.00
2023-02-05T16:30:10.370Z,11.20
2023-02-05T16:32:45.502Z,14.95
2023-02-05T16:35:20.557Z,10.58
2023-02-05T16:37:50.212Z,10.18
2023-02-05T16:40:31.317Z,11.83
2023-02-05T16:43:00.921Z,11.95
2023-02-05T16:45:31.463Z,11.60
2023-02-05T16:48:26.874Z,10.98
2023-02-05T16:50:57.924Z,11.20
2023-02-05T16:53:30.230Z,14.05
2023-02-05T16:56:23.946Z,14.45
2023-02-05T16:58:58.034Z,12.40
2023-02-05T17:01:43.136Z,25.08
2023-02-05T17:04:26.142Z,16.57
2023-02-05T17:06:58.919Z,18.05
2023-02-05T17:09:35.605Z,21.95
2023-02-05T17:12:35.299Z,13.68
2023-02-05T17:15:17.208Z,13.58
2023-02-05T17:17:56.518Z,13.68
2023-02-05T17:20:28.176Z,13.53
2023-02-05T17:23:09.215Z,16.32
2023-02-05T17:25:57.144Z,18.42
2023-02-05T17:28:29.832Z,17.48
2023-02-05T17:30:59.535Z,21.80
2023-02-05T17:33:30.178Z,25.82
2023-02-05T17:35:59.767Z,65.37
2023-02-05T17:38:29.550Z,24.72
2023-02-05T17:41:17.820Z,25.23
2023-02-05T17:43:47.608Z,25.85
2023-02-05T17:46:18.668Z,35.28
2023-02-05T17:48:48.179Z,24.23
2023-02-05T17:51:23.084Z,28.90
2023-02-05T17:53:53.833Z,34.80
2023-02-05T17:56:24.148Z,23.95
2023-02-05T17:58:55.785Z,20.52
2023-02-05T18:01:25.829Z,21.37
2023-02-05T18:03:55.407Z,19.25
2023-02-05T18:06:24.832Z,22.27
2023-02-05T18:08:54.354Z,24.10
2023-02-05T18:11:23.918Z,26.57
2023-02-05T18:13:53.413Z,28.05
2023-02-05T18:16:23.455Z,23.45
2023-02-05T18:18:53.115Z,22.00
2023-02-05T18:21:22.680Z,26.23
2023-02-05T18:23:53.408Z,23.90
2023-02-05T18:26:23.200Z,23.75
2023-02-05T18:28:52.638Z,26.35
2023-02-05T18:31:22.870Z,38.13
2023-02-05T18:33:54.153Z,37.10
2023-02-05T18:36:24.481Z,36.20
2023-02-05T18:38:55.457Z,29.48
2023-02-05T18:41:27.158Z,99.85
2023-02-05T18:43:57.693Z,65.17
2023-02-05T18:46:29.371Z,32.23
2023-02-05T18:48:58.824Z,28.40
2023-02-05T18:51:29.427Z,25.50
2023-02-05T18:53:59.567Z,32.38
2023-02-05T18:56:29.576Z,42.50
2023-02-05T18:59:06.064Z,57.73
2023-02-05T19:01:38.805Z,35.50
2023-02-05T19:04:11.455Z,26.07
2023-02-05T19:06:53.717Z,27.22
2023-02-05T19:09:25.457Z,27.47
2023-02-05T19:11:56.392Z,25.72
2023-02-05T19:14:27.221Z,21.73
2023-02-05T19:16:56.682Z,21.17
2023-02-05T19:19:27.171Z,25.50
2023-02-05T19:21:59.746Z,26.93
2023-02-05T19:24:30.269Z,22.37
2023-02-05T19:26:59.775Z,19.90
2023-02-05T19:29:29.803Z,20.35
2023-02-05T19:31:59.281Z,18.15
2023-02-05T19:34:29.162Z,20.62
2023-02-05T19:36:58.601Z,20.90
2023-02-05T19:39:28.657Z,22.02
2023-02-05T19:41:58.166Z,33.13
2023-02-05T19:44:29.269Z,21.12
2023-02-05T19:46:59.250Z,29.23
2023-02-05T19:49:28.752Z,31.27
2023-02-05T19:52:00.354Z,20.37
2023-02-05T19:54:30.727Z,25.35
2023-02-05T19:57:00.226Z,26.48
2023-02-05T19:59:29.862Z,22.42
2023-02-05T20:01:59.295Z,20.75
2023-02-05T20:04:31.833Z,18.77
2023-02-05T20:07:01.396Z,16.62
2023-02-05T20:09:32.379Z,25.05
2023-02-05T20:12:01.982Z,21.97
2023-02-05T20:14:31.477Z,18.45
2023-02-05T20:17:01.339Z,18.45
2023-02-05T20:19:31.455Z,19.50
2023-02-05T20:22:01.119Z,18.23
2023-02-05T20:24:31.713Z,15.58
2023-02-05T20:27:01.229Z,15.38
2023-02-05T20:29:48.424Z,15.28
2023-02-05T20:32:18.222Z,18.20
2023-02-05T20:34:49.295Z,16.35
2023-02-05T20:37:20.524Z,17.02
2023-02-05T20:39:50.011Z,15.67
2023-02-05T20:42:19.429Z,18.48
2023-02-05T20:44:49.387Z,18.10
2023-02-05T20:47:18.855Z,21.23
2023-02-05T20:49:48.297Z,19.32
2023-02-05T20:52:18.153Z,17.57
2023-02-05T20:54:47.582Z,20.23
2023-02-05T20:57:17.341Z,17.42
2023-02-05T20:59:49.073Z,14.30
2023-02-05T21:02:20.560Z,18.80
2023-02-05T21:04:52.470Z,15.65
2023-02-05T21:07:22.938Z,18.37
2023-02-05T21:09:53.932Z,17.25
2023-02-05T21:12:24.989Z,12.98
2023-02-05T21:14:54.448Z,19.45
2023-02-05T21:17:23.929Z,19.67
2023-02-05T21:19:53.325Z,16.57
2023-02-05T21:22:22.861Z,15.63
2023-02-05T21:24:52.285Z,16.35
2023-02-05T21:27:23.495Z,17.42
2023-02-05T21:29:53.076Z,21.23
2023-02-05T21:32:22.487Z,19.32
2023-02-05T21:34:52.540Z,15.40
2023-02-05T21:37:21.968Z,16.02
2023-02-05T21:39:53.039Z,19.07
2023-02-05T21:42:22.516Z,19.62
2023-02-05T21:44:53.814Z,16.40
2023-02-05T21:47:24.245Z,22.93
2023-02-05T21:49:53.679Z,16.07
2023-02-05T21:52:23.101Z,19.30
2023-02-05T21:54:52.979Z,14.73
2023-02-05T21:57:23.415Z,13.53
2023-02-05T21:59:53.610Z,13.05
2023-02-05T22:02:23.115Z,12.88
2023-02-05T22:04:53.247Z,16.05
2023-02-05T22:07:22.812Z,15.80
2023-02-05T22:09:52.262Z,15.00
2023-02-05T22:12:21.803Z,16.02
2023-02-05T22:17:19.781Z,13.65
2023-02-05T22:19:49.245Z,10.00
2023-02-05T22:22:18.661Z,13.00
2023-02-05T22:24:48.085Z,9.68
2023-02-05T22:27:17.672Z,10.98
2023-02-05T22:29:47.087Z,9.63
2023-02-05T22:32:16.510Z,7.80
2023-02-05T22:34:46.269Z,7.72
2023-02-05T22:37:15.789Z,10.93
2023-02-05T22:39:45.267Z,9.60
2023-02-05T22:42:14.814Z,10.50
2023-02-05T22:44:44.233Z,9.20
2023-02-05T22:47:13.657Z,11.50
2023-02-05T22:49:43.500Z,9.58
2023-02-05T22:52:12.930Z,10.35
2023-02-05T22:54:42.414Z,9.70
2023-02-05T22:57:12.231Z,8.85
2023-02-05T22:59:42.821Z,11.00
2023-02-05T23:02:12.277Z,7.00
2023-02-05T23:04:41.743Z,10.08
2023-02-05T23:07:11.172Z,8.38
2023-02-05T23:09:40.968Z,7.80
2023-02-05T23:12:11.571Z,10.45
2023-02-05T23:14:41.188Z,7.42
2023-02-05T23:17:10.609Z,6.45
2023-02-05T23:19:40.024Z,6.00
2023-02-05T23:22:11.159Z,6.77
2023-02-05T23:24:40.579Z,7.58
2023-02-05T23:27:10.425Z,6.85
2023-02-05T23:29:40.303Z,6.90
2023-02-05T23:32:11.349Z,6.45
2023-02-05T23:34:40.827Z,6.05
2023-02-05T23:37:10.314Z,7.97
2023-02-05T23:39:39.739Z,6.72
2023-02-05T23:42:10.397Z,6.42
2023-02-05T23:44:39.827Z,7.47
2023-02-05T23:47:09.307Z,6.03
2023-02-05T23:49:39.213Z,6.75
2023-02-05T23:52:08.832Z,6.63
2023-02-05T23:54:38.262Z,7.92
2023-02-05T23:57:07.738Z,3.90
2023-02-05T23:59:37.281Z,5.30
